createdAt,value
2022-08-26T00:01:53.876Z,2.60
2022-08-26T00:04:21.954Z,2.80
2022-08-26T00:06:49.447Z,3.22
2022-08-26T00:09:16.991Z,3.03
2022-08-26T00:11:44.647Z,3.10
2022-08-26T00:14:13.611Z,3.00
2022-08-26T00:16:47.606Z,2.80
2022-08-26T00:19:17.741Z,3.17
2022-08-26T00:21:46.004Z,2.87
2022-08-26T00:24:14.150Z,2.60
2022-08-26T00:26:42.302Z,2.90
2022-08-26T00:29:10.553Z,3.00
2022-08-26T00:31:38.632Z,2.73
2022-08-26T00:34:09.559Z,2.97
2022-08-26T00:36:39.789Z,3.30
2022-08-26T00:39:08.552Z,2.77
2022-08-26T00:41:38.385Z,2.93
2022-08-26T00:44:06.717Z,3.00
2022-08-26T00:46:37.707Z,2.90
2022-08-26T00:49:12.346Z,3.30
2022-08-26T00:51:46.798Z,3.20
2022-08-26T00:54:16.049Z,3.33
2022-08-26T00:56:47.891Z,3.30
2022-08-26T00:59:18.559Z,3.07
2022-08-26T01:01:46.325Z,3.57
2022-08-26T01:04:20.367Z,3.03
2022-08-26T01:06:50.107Z,3.40
2022-08-26T01:09:19.443Z,3.80
2022-08-26T01:11:48.228Z,2.77
2022-08-26T01:14:17.930Z,3.50
2022-08-26T01:16:49.059Z,3.00
2022-08-26T01:19:22.872Z,3.93
2022-08-26T01:21:57.264Z,3.40
2022-08-26T01:24:27.957Z,2.73
2022-08-26T01:26:58.823Z,3.13
2022-08-26T01:29:27.155Z,3.70
2022-08-26T01:31:58.046Z,3.47
2022-08-26T01:34:28.757Z,3.57
2022-08-26T01:37:03.910Z,3.57
2022-08-26T01:39:36.413Z,3.43
2022-08-26T01:42:10.302Z,3.43
2022-08-26T01:44:44.970Z,3.47
2022-08-26T01:47:15.922Z,3.57
2022-08-26T01:49:48.999Z,3.97
2022-08-26T01:52:24.109Z,3.40
2022-08-26T01:55:00.116Z,3.60
2022-08-26T01:57:28.956Z,3.70
2022-08-26T02:00:00.957Z,4.13
2022-08-26T02:02:29.131Z,3.97
2022-08-26T02:05:00.683Z,3.97
2022-08-26T02:07:29.579Z,4.07
2022-08-26T02:09:58.480Z,4.03
2022-08-26T02:12:27.825Z,4.50
2022-08-26T02:14:59.387Z,4.60
2022-08-26T02:17:35.018Z,4.17
2022-08-26T02:20:03.756Z,4.07
2022-08-26T02:22:34.197Z,3.93
2022-08-26T02:25:12.941Z,3.97
2022-08-26T02:27:40.696Z,4.23
2022-08-26T02:30:12.208Z,4.80
2022-08-26T02:32:41.263Z,4.40
2022-08-26T02:35:10.748Z,4.27
2022-08-26T02:37:38.667Z,4.47
2022-08-26T02:40:14.769Z,4.20
2022-08-26T02:42:42.597Z,4.20
2022-08-26T02:45:11.602Z,5.07
2022-08-26T02:47:39.239Z,4.37
2022-08-26T02:50:07.906Z,4.43
2022-08-26T02:52:35.770Z,4.63
2022-08-26T02:55:04.932Z,5.30
2022-08-26T02:57:33.869Z,4.93
2022-08-26T03:00:02.406Z,4.33
2022-08-26T03:02:30.423Z,4.63
2022-08-26T03:05:01.927Z,4.90
2022-08-26T03:07:30.244Z,4.63
2022-08-26T03:09:57.911Z,4.27
2022-08-26T03:12:25.818Z,4.30
2022-08-26T03:14:54.735Z,4.43
2022-08-26T03:17:22.663Z,5.37
2022-08-26T03:19:57.004Z,4.67
2022-08-26T03:22:25.692Z,4.80
2022-08-26T03:24:54.677Z,4.40
2022-08-26T03:27:22.230Z,4.70
2022-08-26T03:30:07.687Z,4.87
2022-08-26T03:32:41.447Z,5.00
2022-08-26T03:35:09.825Z,5.23
2022-08-26T03:37:37.571Z,5.23
2022-08-26T03:40:08.031Z,4.73
2022-08-26T03:42:36.414Z,5.00
2022-08-26T03:45:04.975Z,5.20
2022-08-26T03:47:33.683Z,5.00
2022-08-26T03:50:03.289Z,5.00
2022-08-26T03:52:31.399Z,4.63
2022-08-26T03:54:58.991Z,4.80
2022-08-26T03:57:26.611Z,4.90
2022-08-26T03:59:55.485Z,4.80
2022-08-26T04:02:23.100Z,4.23
2022-08-26T04:04:50.758Z,6.47
2022-08-26T04:07:20.134Z,4.60
2022-08-26T04:09:47.891Z,4.50
2022-08-26T04:12:16.236Z,6.30
2022-08-26T04:14:43.995Z,4.57
2022-08-26T04:17:12.093Z,5.50
2022-08-26T04:19:40.826Z,4.70
2022-08-26T04:22:08.576Z,4.90
2022-08-26T04:24:39.822Z,6.27
2022-08-26T04:27:08.196Z,5.13
2022-08-26T04:29:35.770Z,5.13
2022-08-26T04:32:04.082Z,5.03
2022-08-26T04:34:32.786Z,4.90
2022-08-26T04:37:01.214Z,4.60
2022-08-26T04:39:29.203Z,3.93
2022-08-26T04:41:58.595Z,4.63
2022-08-26T04:44:28.767Z,5.00
2022-08-26T04:46:57.709Z,4.67
2022-08-26T04:49:26.066Z,6.73
2022-08-26T04:51:55.075Z,6.87
2022-08-26T04:54:23.420Z,5.00
2022-08-26T04:56:52.727Z,5.10
2022-08-26T04:59:21.653Z,5.37
2022-08-26T05:01:51.689Z,4.80
2022-08-26T05:04:21.290Z,5.07
2022-08-26T05:06:50.640Z,4.70
2022-08-26T05:09:19.907Z,4.47
2022-08-26T05:11:48.539Z,4.67
2022-08-26T05:14:23.073Z,4.67
2022-08-26T05:16:50.967Z,4.73
2022-08-26T05:19:19.509Z,4.90
2022-08-26T05:21:48.334Z,4.40
2022-08-26T05:24:16.879Z,4.63
2022-08-26T05:26:44.952Z,5.00
2022-08-26T05:29:13.021Z,5.17
2022-08-26T05:31:42.521Z,4.60
2022-08-26T05:34:10.222Z,4.20
2022-08-26T05:36:38.795Z,5.83
2022-08-26T05:39:07.738Z,4.30
2022-08-26T05:41:40.929Z,4.30
2022-08-26T05:44:10.896Z,5.10
2022-08-26T05:46:39.557Z,4.53
2022-08-26T05:49:12.566Z,6.23
2022-08-26T05:51:41.205Z,4.77
2022-08-26T05:54:08.743Z,5.43
2022-08-26T05:56:38.079Z,4.50
2022-08-26T05:59:06.116Z,4.03
2022-08-26T06:01:43.387Z,4.90
2022-08-26T06:04:12.560Z,6.10
2022-08-26T06:06:41.616Z,4.00
2022-08-26T06:09:11.428Z,4.65
2022-08-26T06:11:40.136Z,4.93
2022-08-26T06:14:09.050Z,5.03
2022-08-26T06:16:40.819Z,4.55
2022-08-26T06:19:11.481Z,5.25
2022-08-26T06:21:43.510Z,4.75
2022-08-26T06:24:30.674Z,4.95
2022-08-26T06:27:01.421Z,4.70
2022-08-26T06:29:31.073Z,4.57
2022-08-26T06:31:58.935Z,5.68
2022-08-26T06:34:30.367Z,6.32
2022-08-26T06:37:02.487Z,5.60
2022-08-26T06:39:31.374Z,5.90
2022-08-26T06:41:59.355Z,4.97
2022-08-26T06:44:27.291Z,6.28
2022-08-26T06:46:55.075Z,5.38
2022-08-26T06:49:26.771Z,4.95
2022-08-26T06:51:57.930Z,5.05
2022-08-26T06:54:27.868Z,4.97
2022-08-26T06:56:56.792Z,7.32
2022-08-26T06:59:25.324Z,4.78
2022-08-26T07:01:53.545Z,5.18
2022-08-26T07:04:23.273Z,5.15
2022-08-26T07:06:53.614Z,5.50
2022-08-26T07:09:22.342Z,6.32
2022-08-26T07:11:52.197Z,5.03
2022-08-26T07:14:21.113Z,5.22
2022-08-26T07:16:49.486Z,5.15
2022-08-26T07:19:17.657Z,5.20
2022-08-26T07:21:58.372Z,4.78
2022-08-26T07:24:28.520Z,5.97
2022-08-26T07:27:01.636Z,5.28
2022-08-26T07:29:30.343Z,4.65
2022-08-26T07:31:58.111Z,5.13
2022-08-26T07:34:26.174Z,5.00
2022-08-26T07:36:55.277Z,6.15
2022-08-26T07:39:23.781Z,5.45
2022-08-26T07:41:51.599Z,5.47
2022-08-26T07:44:21.011Z,4.97
2022-08-26T07:46:53.044Z,4.90
2022-08-26T07:49:21.838Z,4.60
2022-08-26T07:51:49.739Z,4.68
2022-08-26T07:54:17.696Z,5.45
2022-08-26T07:56:47.465Z,5.43
2022-08-26T07:59:15.591Z,4.88
2022-08-26T08:01:45.444Z,4.43
2022-08-26T08:04:13.860Z,5.15
2022-08-26T08:06:43.912Z,4.70
2022-08-26T08:09:12.720Z,5.03
2022-08-26T08:11:41.329Z,5.25
2022-08-26T08:14:11.755Z,4.72
2022-08-26T08:16:45.853Z,7.10
2022-08-26T08:19:15.316Z,4.45
2022-08-26T08:21:43.308Z,4.45
2022-08-26T08:24:11.491Z,4.65
2022-08-26T08:26:39.306Z,4.93
2022-08-26T08:29:08.697Z,7.47
2022-08-26T08:34:27.041Z,5.35
2022-08-26T08:36:55.954Z,4.55
2022-08-26T08:39:24.397Z,4.72
2022-08-26T08:42:07.949Z,4.75
2022-08-26T08:44:41.626Z,4.80
2022-08-26T08:47:18.991Z,5.30
2022-08-26T08:49:49.767Z,4.65
2022-08-26T08:52:28.788Z,4.78
2022-08-26T08:54:58.125Z,5.68
2022-08-26T08:57:34.123Z,4.50
2022-08-26T09:00:09.304Z,5.00
2022-08-26T09:02:44.160Z,4.82
2022-08-26T09:05:21.309Z,5.25
2022-08-26T09:07:52.871Z,5.25
2022-08-26T09:10:32.128Z,6.32
2022-08-26T09:13:02.479Z,6.45
2022-08-26T09:15:37.227Z,10.65
2022-08-26T09:18:17.609Z,5.95
2022-08-26T09:20:53.340Z,5.55
2022-08-26T09:23:20.988Z,8.50
2022-08-26T09:25:50.647Z,6.32
2022-08-26T09:28:20.511Z,5.45
2022-08-26T09:30:58.786Z,5.07
2022-08-26T09:33:30.116Z,5.00
2022-08-26T09:38:52.479Z,5.05
2022-08-26T09:41:24.610Z,5.65
2022-08-26T09:44:14.743Z,5.43
2022-08-26T09:46:47.437Z,6.38
2022-08-26T09:49:25.990Z,4.80
2022-08-26T09:52:10.453Z,4.65
2022-08-26T09:54:40.002Z,6.60
2022-08-26T09:57:21.802Z,4.43
2022-08-26T09:59:50.511Z,5.97
2022-08-26T10:02:37.773Z,4.72
2022-08-26T10:05:11.014Z,5.35
2022-08-26T10:07:43.424Z,5.93
2022-08-26T10:10:18.111Z,4.72
2022-08-26T10:13:03.169Z,6.93
2022-08-26T10:15:39.497Z,7.30
2022-08-26T10:18:12.992Z,4.85
2022-08-26T10:20:52.079Z,6.22
2022-08-26T10:23:23.367Z,4.20
2022-08-26T10:25:59.011Z,4.22
2022-08-26T10:28:36.341Z,4.50
2022-08-26T10:31:09.748Z,4.53
2022-08-26T10:33:39.862Z,4.78
2022-08-26T10:36:39.362Z,4.53
2022-08-26T10:39:21.042Z,3.78
2022-08-26T10:41:54.353Z,4.00
2022-08-26T10:44:23.731Z,4.88
2022-08-26T10:46:55.016Z,4.25
2022-08-26T10:49:22.683Z,4.40
2022-08-26T10:51:57.669Z,4.00
2022-08-26T10:54:32.321Z,3.85
2022-08-26T10:57:09.822Z,4.13
2022-08-26T10:59:49.023Z,4.45
2022-08-26T11:02:25.391Z,5.90
2022-08-26T11:04:58.139Z,4.18
2022-08-26T11:07:39.102Z,3.92
2022-08-26T11:10:26.616Z,4.72
2022-08-26T11:12:58.322Z,3.38
2022-08-26T11:16:09.177Z,3.78
2022-08-26T11:18:48.581Z,4.13
2022-08-26T11:22:06.175Z,4.10
2022-08-26T11:25:11.526Z,3.80
2022-08-26T11:28:05.434Z,4.20
2022-08-26T11:30:56.922Z,3.92
2022-08-26T11:33:59.887Z,5.55
2022-08-26T11:36:40.827Z,4.15
2022-08-26T11:39:18.646Z,3.38
2022-08-26T11:41:47.259Z,3.58
2022-08-26T11:44:20.954Z,5.38
2022-08-26T11:46:57.761Z,3.45
2022-08-26T11:49:26.488Z,3.75
2022-08-26T11:52:08.047Z,4.20
2022-08-26T11:54:35.946Z,4.53
2022-08-26T11:57:09.259Z,3.45
2022-08-26T11:59:43.373Z,3.33
2022-08-26T12:02:18.113Z,3.35
2022-08-26T12:04:49.501Z,3.50
2022-08-26T12:07:23.844Z,4.03
2022-08-26T12:09:56.297Z,4.45
2022-08-26T12:12:29.152Z,4.40
2022-08-26T12:15:13.706Z,3.28
2022-08-26T12:17:42.559Z,5.07
2022-08-26T12:20:28.725Z,4.20
2022-08-26T12:22:56.545Z,3.70
2022-08-26T12:25:25.156Z,4.10
2022-08-26T12:27:54.042Z,4.15
2022-08-26T12:30:26.075Z,5.80
2022-08-26T12:33:19.929Z,4.40
2022-08-26T12:35:52.890Z,4.97
2022-08-26T12:38:22.790Z,4.97
2022-08-26T12:40:50.985Z,4.88
2022-08-26T12:43:37.416Z,4.43
2022-08-26T12:46:08.809Z,4.47
2022-08-26T12:48:39.399Z,4.45
2022-08-26T12:51:08.315Z,3.83
2022-08-26T12:53:42.794Z,4.55
2022-08-26T12:56:22.993Z,4.50
2022-08-26T12:59:02.596Z,5.00
2022-08-26T13:01:39.104Z,4.63
2022-08-26T13:04:07.535Z,5.72
2022-08-26T13:06:35.309Z,4.85
2022-08-26T13:09:06.567Z,4.40
2022-08-26T13:11:55.554Z,4.82
2022-08-26T13:14:25.573Z,5.32
2022-08-26T13:16:53.921Z,7.80
2022-08-26T13:19:23.953Z,5.72
2022-08-26T13:21:53.831Z,5.15
2022-08-26T13:24:25.713Z,6.97
2022-08-26T13:26:53.309Z,6.82
2022-08-26T13:29:21.030Z,7.45
2022-08-26T13:31:50.226Z,7.63
2022-08-26T13:34:20.041Z,7.55
2022-08-26T13:36:48.251Z,7.78
2022-08-26T13:39:16.351Z,7.97
2022-08-26T13:41:44.156Z,7.63
2022-08-26T13:44:12.574Z,7.55
2022-08-26T13:46:40.562Z,6.88
2022-08-26T13:49:09.994Z,6.38
2022-08-26T13:51:38.305Z,7.00
2022-08-26T13:54:07.040Z,7.40
2022-08-26T13:56:35.827Z,7.65
2022-08-26T13:59:04.546Z,7.13
2022-08-26T14:01:33.567Z,7.43
2022-08-26T14:04:02.991Z,7.78
2022-08-26T14:06:32.094Z,7.97
2022-08-26T14:09:00.304Z,7.72
2022-08-26T14:11:29.430Z,7.90
2022-08-26T14:14:08.907Z,7.47
2022-08-26T14:16:56.062Z,7.88
2022-08-26T14:19:26.839Z,8.48
2022-08-26T14:21:56.066Z,8.13
2022-08-26T14:24:23.645Z,9.45
2022-08-26T14:26:51.218Z,8.38
2022-08-26T14:29:18.798Z,9.95
2022-08-26T14:31:46.439Z,11.32
2022-08-26T14:34:15.216Z,10.85
2022-08-26T14:36:43.420Z,10.68
2022-08-26T14:39:14.241Z,12.23
2022-08-26T14:41:54.009Z,11.23
2022-08-26T14:44:25.495Z,11.23
2022-08-26T14:46:54.437Z,11.60
2022-08-26T14:49:24.201Z,12.02
2022-08-26T14:51:51.771Z,12.43
2022-08-26T14:54:20.918Z,12.77
2022-08-26T14:56:51.181Z,13.07
2022-08-26T14:59:20.972Z,13.38
2022-08-26T15:01:49.364Z,13.00
2022-08-26T15:04:17.753Z,13.25
2022-08-26T15:06:46.114Z,12.93
2022-08-26T15:09:14.482Z,14.20
2022-08-26T15:11:43.442Z,14.27
2022-08-26T15:14:18.886Z,13.80
2022-08-26T15:16:47.482Z,13.55
2022-08-26T15:19:15.437Z,13.65
2022-08-26T15:21:43.302Z,14.13
2022-08-26T15:24:10.947Z,14.38
2022-08-26T15:26:38.751Z,13.48
2022-08-26T15:29:07.759Z,14.02
2022-08-26T15:31:36.593Z,13.15
2022-08-26T15:34:06.553Z,12.85
2022-08-26T15:36:34.952Z,10.98
2022-08-26T15:39:02.594Z,10.05
2022-08-26T15:41:30.349Z,10.48
2022-08-26T15:44:03.446Z,9.02
2022-08-26T15:46:33.572Z,9.48
2022-08-26T15:49:01.549Z,9.73
2022-08-26T15:51:30.971Z,9.48
2022-08-26T15:53:59.118Z,8.57
2022-08-26T15:56:28.471Z,10.63
2022-08-26T15:58:56.633Z,9.05
2022-08-26T16:01:27.237Z,9.50
2022-08-26T16:03:57.157Z,9.65
2022-08-26T16:06:27.337Z,9.75
2022-08-26T16:08:56.317Z,9.73
2022-08-26T16:11:24.539Z,10.07
2022-08-26T16:13:52.750Z,10.23
2022-08-26T16:16:21.380Z,10.45
2022-08-26T16:18:49.534Z,11.40
2022-08-26T16:21:20.857Z,11.63
2022-08-26T16:23:49.037Z,14.10
2022-08-26T16:26:19.021Z,11.85
2022-08-26T16:28:47.298Z,13.10
2022-08-26T16:31:16.653Z,13.60
2022-08-26T16:33:44.568Z,12.52
2022-08-26T16:36:13.034Z,12.20
2022-08-26T16:38:42.932Z,12.73
2022-08-26T16:41:10.635Z,12.93
2022-08-26T16:43:38.282Z,13.02
2022-08-26T16:46:07.105Z,13.63
2022-08-26T16:48:35.955Z,13.77
2022-08-26T16:51:03.666Z,13.63
2022-08-26T16:53:31.402Z,12.70
2022-08-26T16:56:00.349Z,13.80
2022-08-26T16:58:28.096Z,11.73
2022-08-26T17:00:56.938Z,10.52
2022-08-26T17:03:24.559Z,9.38
2022-08-26T17:05:52.131Z,7.75
2022-08-26T17:08:24.395Z,7.63
2022-08-26T17:10:56.577Z,7.18
2022-08-26T17:13:34.863Z,7.03
2022-08-26T17:16:04.630Z,6.43
2022-08-26T17:18:32.812Z,6.90
2022-08-26T17:21:02.269Z,7.40
2022-08-26T17:23:29.875Z,7.60
2022-08-26T17:25:57.470Z,6.88
2022-08-26T17:28:26.506Z,7.25
2022-08-26T17:30:56.002Z,7.13
2022-08-26T17:33:24.643Z,8.30
2022-08-26T17:35:53.491Z,8.80
2022-08-26T17:38:21.818Z,9.15
2022-08-26T17:40:52.795Z,11.00
2022-08-26T17:43:20.578Z,11.25
2022-08-26T17:45:49.622Z,11.70
2022-08-26T17:48:17.790Z,13.18
2022-08-26T17:50:49.321Z,13.80
2022-08-26T17:53:18.499Z,12.23
2022-08-26T17:55:47.057Z,12.85
2022-08-26T17:58:14.924Z,11.75
2022-08-26T18:00:44.350Z,12.07
2022-08-26T18:03:13.549Z,12.05
2022-08-26T18:05:41.151Z,11.07
2022-08-26T18:08:08.735Z,11.35
2022-08-26T18:10:36.440Z,14.90
2022-08-26T18:13:04.131Z,10.68
2022-08-26T18:15:31.706Z,11.00
2022-08-26T18:17:59.291Z,9.23
2022-08-26T18:20:28.168Z,10.10
2022-08-26T18:22:55.743Z,10.48
2022-08-26T18:25:23.491Z,10.20
2022-08-26T18:27:51.055Z,11.38
2022-08-26T18:30:21.533Z,9.82
2022-08-26T18:32:49.290Z,9.68
2022-08-26T18:35:17.421Z,10.30
2022-08-26T18:37:46.564Z,9.32
2022-08-26T18:40:16.474Z,9.90
2022-08-26T18:42:44.262Z,10.27
2022-08-26T18:45:16.167Z,11.48
2022-08-26T18:47:44.510Z,9.38
2022-08-26T18:50:12.344Z,9.38
2022-08-26T18:52:40.244Z,10.93
2022-08-26T18:55:09.508Z,12.52
2022-08-26T18:57:37.311Z,9.70
2022-08-26T19:00:08.195Z,10.13
2022-08-26T19:02:36.137Z,9.23
2022-08-26T19:05:05.555Z,10.25
2022-08-26T19:07:36.567Z,9.45
2022-08-26T19:10:09.960Z,9.68
2022-08-26T19:12:37.662Z,9.70
2022-08-26T19:15:06.067Z,9.27
2022-08-26T19:17:33.691Z,10.43
2022-08-26T19:20:01.218Z,9.82
2022-08-26T19:22:29.019Z,9.38
2022-08-26T19:24:56.550Z,9.30
2022-08-26T19:27:25.386Z,9.38
2022-08-26T19:29:53.067Z,10.75
2022-08-26T19:32:24.089Z,9.70
2022-08-26T19:34:51.898Z,8.80
2022-08-26T19:37:19.898Z,8.93
2022-08-26T19:39:47.496Z,9.57
2022-08-26T19:42:15.316Z,8.45
2022-08-26T19:45:02.174Z,8.27
2022-08-26T19:47:29.844Z,8.98
2022-08-26T19:49:58.243Z,8.55
2022-08-26T19:52:30.111Z,8.63
2022-08-26T19:54:58.018Z,9.40
2022-08-26T19:57:25.808Z,8.30
2022-08-26T19:59:54.678Z,9.07
2022-08-26T20:02:22.272Z,8.13
2022-08-26T20:04:49.894Z,8.35
2022-08-26T20:07:18.861Z,9.18
2022-08-26T20:09:48.113Z,9.18
2022-08-26T20:12:17.280Z,8.70
2022-08-26T20:14:45.107Z,8.70
2022-08-26T20:17:15.987Z,9.30
2022-08-26T20:20:01.246Z,9.10
2022-08-26T20:22:28.880Z,8.85
2022-08-26T20:24:56.572Z,8.45
2022-08-26T20:27:37.718Z,9.38
2022-08-26T20:30:08.346Z,9.25
2022-08-26T20:32:38.046Z,8.52
2022-08-26T20:35:07.960Z,8.25
2022-08-26T20:37:35.747Z,9.15
2022-08-26T20:40:04.135Z,8.05
2022-08-26T20:42:31.923Z,8.77
2022-08-26T20:44:59.498Z,8.43
2022-08-26T20:47:27.048Z,8.68
2022-08-26T20:49:58.248Z,9.07
2022-08-26T20:52:25.932Z,9.05
2022-08-26T20:54:53.506Z,8.52
2022-08-26T20:57:22.391Z,9.00
2022-08-26T20:59:50.240Z,8.30
2022-08-26T21:02:18.175Z,8.20
2022-08-26T21:04:45.825Z,8.13
2022-08-26T21:07:14.805Z,7.93
2022-08-26T21:09:44.737Z,8.05
2022-08-26T21:12:13.663Z,7.80
2022-08-26T21:14:41.370Z,6.75
2022-08-26T21:17:09.049Z,7.60
2022-08-26T21:19:36.627Z,7.60
2022-08-26T21:22:04.922Z,7.70
2022-08-26T21:24:33.955Z,7.55
2022-08-26T21:27:01.548Z,7.03
2022-08-26T21:29:29.162Z,7.28
2022-08-26T21:31:57.463Z,6.95
2022-08-26T21:34:25.096Z,8.60
2022-08-26T21:36:52.677Z,7.13
2022-08-26T21:39:20.261Z,7.03
2022-08-26T21:41:49.321Z,7.20
2022-08-26T21:44:18.722Z,6.68
2022-08-26T21:46:47.478Z,7.00
2022-08-26T21:49:16.829Z,7.50
2022-08-26T21:51:46.870Z,7.13
2022-08-26T21:54:15.642Z,8.40
2022-08-26T21:56:46.540Z,6.72
2022-08-26T21:59:17.507Z,7.55
2022-08-26T22:01:45.310Z,6.30
2022-08-26T22:04:12.987Z,9.43
2022-08-26T22:06:43.219Z,6.97
2022-08-26T22:09:11.500Z,6.57
2022-08-26T22:11:39.142Z,8.15
2022-08-26T22:14:07.423Z,7.60
2022-08-26T22:16:36.469Z,7.80
2022-08-26T22:19:04.107Z,5.95
2022-08-26T22:21:32.107Z,6.35
2022-08-26T22:23:59.728Z,5.97
2022-08-26T22:26:29.738Z,6.00
2022-08-26T22:28:59.490Z,6.90
2022-08-26T22:31:37.034Z,8.48
2022-08-26T22:34:09.594Z,6.38
2022-08-26T22:36:42.864Z,6.25
2022-08-26T22:39:12.102Z,8.57
2022-08-26T22:41:40.230Z,5.95
2022-08-26T22:44:07.756Z,7.15
2022-08-26T22:46:38.647Z,6.68
2022-08-26T22:49:09.555Z,7.35
2022-08-26T22:51:37.225Z,8.27
2022-08-26T22:54:05.019Z,8.02
2022-08-26T22:56:32.642Z,7.30
2022-08-26T22:59:00.336Z,5.43
2022-08-26T23:01:28.114Z,5.25
2022-08-26T23:03:55.798Z,6.43
2022-08-26T23:06:24.667Z,5.97
2022-08-26T23:08:53.023Z,6.43
2022-08-26T23:11:20.592Z,5.53
2022-08-26T23:13:48.269Z,6.68
2022-08-26T23:16:15.902Z,6.53
2022-08-26T23:18:43.466Z,5.40
2022-08-26T23:21:11.609Z,6.93
2022-08-26T23:23:40.546Z,5.45
2022-08-26T23:26:09.055Z,6.50
2022-08-26T23:28:37.447Z,6.43
2022-08-26T23:31:06.230Z,7.47
2022-08-26T23:33:47.821Z,7.50
2022-08-26T23:36:17.921Z,5.68
2022-08-26T23:38:52.741Z,5.18
2022-08-26T23:41:22.275Z,7.28
2022-08-26T23:43:49.909Z,6.80
2022-08-26T23:46:17.721Z,6.75
2022-08-26T23:48:45.670Z,6.53
2022-08-26T23:51:30.951Z,7.30
2022-08-26T23:53:59.865Z,5.63
2022-08-26T23:56:27.717Z,7.28
2022-08-26T23:58:55.385Z,6.03
